Time;durP1;ratioP1;P1;durP2;ratioP2;P2;SDS_P1;SDS_P2;PMS_P1;PMS_P2;Temp;Humidity;BMP_temperature;BMP_pressure;BME280_temperature;BME280_humidity;BME280_pressure;Samples;Min_cycle;Max_cycle;Signal;HPM_P1;HPM_P2
2023/02/16 05:02:00;;;;;;;4.97;4.75;;;3.20;99.90;;;;;;5192536;23;20268;-67
2023/02/16 05:04:27;;;;;;;6.95;6.50;;;3.10;99.90;;;;;;4914640;29;20585;-67
2023/02/16 05:06:54;;;;;;;5.82;5.18;;;3.10;99.90;;;;;;4930138;29;20219;-69
2023/02/16 05:09:21;;;;;;;21.55;5.72;;;3.10;99.90;;;;;;4924684;29;20215;-69
2023/02/16 05:14:43;;;;;;;6.05;5.55;;;3.10;99.90;;;;;;4922770;29;20285;-69
2023/02/16 05:17:14;;;;;;;5.65;5.20;;;3.10;99.90;;;;;;4955352;23;20316;-70
2023/02/16 05:19:41;;;;;;;9.15;5.93;;;3.10;99.90;;;;;;4953348;28;20213;-70
2023/02/16 05:22:08;;;;;;;7.55;7.13;;;3.10;99.90;;;;;;4951924;29;20236;-69
2023/02/16 05:24:35;;;;;;;4.38;4.05;;;3.10;99.90;;;;;;4952606;29;20221;-69
2023/02/16 05:27:03;;;;;;;5.05;4.88;;;3.10;99.90;;;;;;4942075;28;20226;-69
2023/02/16 05:29:29;;;;;;;9.88;7.53;;;3.10;99.90;;;;;;4929606;29;20210;-69
2023/02/16 05:31:57;;;;;;;10.07;8.57;;;3.10;99.90;;;;;;4933147;29;20226;-70
2023/02/16 05:34:25;;;;;;;9.32;6.90;;;3.00;99.90;;;;;;4930363;29;20628;-70
2023/02/16 05:36:52;;;;;;;7.22;5.38;;;3.00;99.90;;;;;;4929629;29;20233;-69
2023/02/16 05:39:19;;;;;;;14.07;7.32;;;3.00;99.90;;;;;;4934227;29;20663;-69
2023/02/16 05:41:46;;;;;;;8.48;4.82;;;3.00;99.90;;;;;;4934421;29;20221;-69
2023/02/16 05:44:12;;;;;;;9.05;8.20;;;3.00;99.90;;;;;;4933718;29;20586;-70
2023/02/16 05:46:40;;;;;;;5.43;4.97;;;3.00;99.90;;;;;;4933296;29;20234;-70
2023/02/16 05:49:08;;;;;;;24.00;7.20;;;3.00;99.90;;;;;;4933561;29;20225;-69
2023/02/16 05:51:36;;;;;;;15.32;9.32;;;3.00;99.90;;;;;;4934235;29;20221;-68
2023/02/16 05:54:04;;;;;;;9.55;8.57;;;3.00;99.90;;;;;;4933211;29;20230;-70
2023/02/16 05:56:31;;;;;;;6.50;6.03;;;3.00;99.90;;;;;;4932964;29;20238;-68
2023/02/16 05:58:58;;;;;;;8.43;7.65;;;3.00;99.90;;;;;;4939524;29;20209;-68
2023/02/16 06:01:25;;;;;;;14.20;7.38;;;3.00;99.90;;;;;;4941604;29;20233;-68
2023/02/16 06:03:51;;;;;;;10.55;6.05;;;3.00;99.90;;;;;;4937149;29;20210;-69
2023/02/16 06:06:18;;;;;;;15.50;6.15;;;3.00;99.90;;;;;;4932561;29;20229;-69
2023/02/16 06:08:46;;;;;;;7.97;6.38;;;3.00;99.90;;;;;;4931938;29;20202;-69
2023/02/16 06:13:56;;;;;;;8.43;7.68;;;3.00;99.90;;;;;;4932338;29;20240;-69
2023/02/16 06:16:24;;;;;;;18.45;7.53;;;3.00;99.90;;;;;;4934398;29;20291;-68
2023/02/16 06:18:51;;;;;;;19.27;8.18;;;3.00;99.90;;;;;;4934215;29;20579;-69
2023/02/16 06:21:17;;;;;;;10.93;6.70;;;3.00;99.90;;;;;;4933689;29;20205;-68
2023/02/16 06:23:45;;;;;;;7.65;6.95;;;3.00;99.90;;;;;;4932645;29;20213;-71
2023/02/16 06:26:12;;;;;;;11.15;8.00;;;3.00;99.90;;;;;;4931617;29;20568;-69
2023/02/16 06:28:39;;;;;;;6.70;6.10;;;3.00;99.90;;;;;;4932190;29;20209;-69
2023/02/16 06:31:05;;;;;;;13.32;10.65;;;3.00;99.90;;;;;;4934070;29;20216;-69
2023/02/16 06:33:32;;;;;;;18.30;10.32;;;3.00;99.90;;;;;;4933022;29;20247;-69
2023/02/16 06:35:59;;;;;;;18.35;8.55;;;3.00;99.90;;;;;;4933523;29;20241;-69
2023/02/16 06:38:26;;;;;;;25.55;13.02;;;3.10;99.90;;;;;;4932660;29;20705;-70
2023/02/16 06:40:54;;;;;;;20.10;8.48;;;3.10;99.90;;;;;;4932738;29;20205;-70
2023/02/16 06:43:21;;;;;;;11.52;10.18;;;3.10;99.90;;;;;;4932818;29;20555;-70
2023/02/16 06:45:48;;;;;;;36.83;11.18;;;3.20;99.90;;;;;;4933726;29;20217;-69
2023/02/16 06:48:15;;;;;;;9.85;8.73;;;3.20;99.90;;;;;;4932042;29;20210;-69
2023/02/16 06:50:42;;;;;;;15.30;8.00;;;3.30;99.90;;;;;;4933752;29;20295;-69
2023/02/16 06:53:08;;;;;;;19.77;8.63;;;3.30;99.90;;;;;;4930859;29;20738;-70
2023/02/16 06:55:36;;;;;;;16.40;8.00;;;3.30;99.90;;;;;;4929341;28;20209;-70
2023/02/16 06:58:04;;;;;;;13.95;12.55;;;3.40;99.90;;;;;;4933336;28;20214;-69
2023/02/16 07:00:32;;;;;;;25.05;11.50;;;3.40;99.90;;;;;;4931343;29;20316;-69
2023/02/16 07:02:59;;;;;;;16.73;11.50;;;3.40;99.90;;;;;;4932946;29;20209;-69
2023/02/16 07:05:26;;;;;;;24.35;13.68;;;3.50;99.90;;;;;;4937537;28;20214;-69
2023/02/16 07:07:52;;;;;;;20.25;11.50;;;3.50;99.90;;;;;;4932549;29;20230;-69
2023/02/16 07:10:19;;;;;;;16.88;13.63;;;3.60;99.90;;;;;;4928487;29;20222;-69
2023/02/16 07:12:47;;;;;;;17.83;11.23;;;3.60;99.90;;;;;;4935188;29;20229;-70
2023/02/16 07:15:15;;;;;;;25.30;16.33;;;3.70;99.90;;;;;;4936985;29;20293;-69
2023/02/16 07:17:42;;;;;;;10.75;9.05;;;3.70;99.90;;;;;;4937003;29;20240;-69
2023/02/16 07:20:10;;;;;;;25.02;13.00;;;3.70;99.90;;;;;;4936339;29;20698;-69
2023/02/16 07:22:37;;;;;;;18.42;13.70;;;3.80;99.90;;;;;;4936264;29;20300;-69
2023/02/16 07:25:04;;;;;;;21.17;12.68;;;3.90;99.90;;;;;;4934265;29;20668;-69
2023/02/16 07:27:31;;;;;;;17.02;12.82;;;3.90;99.90;;;;;;4928645;29;20237;-69
2023/02/16 07:29:58;;;;;;;11.93;9.77;;;3.90;99.90;;;;;;4935297;29;20218;-68
2023/02/16 07:32:28;;;;;;;14.07;9.38;;;4.00;99.90;;;;;;4933088;28;20217;-69
2023/02/16 07:34:55;;;;;;;13.25;10.55;;;4.10;99.90;;;;;;4936731;29;20230;-68
2023/02/16 07:37:21;;;;;;;16.08;8.50;;;4.10;99.90;;;;;;4936403;29;20786;-68
2023/02/16 07:39:48;;;;;;;31.25;11.52;;;4.20;99.90;;;;;;4936377;29;20215;-68
2023/02/16 07:42:15;;;;;;;18.08;10.82;;;4.30;99.90;;;;;;4935865;29;20215;-69
2023/02/16 07:44:41;;;;;;;30.92;13.23;;;4.30;99.90;;;;;;4934701;29;20570;-68
2023/02/16 07:47:08;;;;;;;16.85;11.82;;;4.40;99.90;;;;;;4934895;28;20234;-69
2023/02/16 07:49:36;;;;;;;20.48;14.85;;;4.50;99.90;;;;;;4937467;28;20214;-69
2023/02/16 07:52:03;;;;;;;17.17;10.57;;;4.80;99.90;;;;;;4936914;29;20215;-70
2023/02/16 07:54:31;;;;;;;23.90;14.43;;;4.90;99.90;;;;;;4935754;29;20242;-69
2023/02/16 07:56:58;;;;;;;12.55;10.70;;;5.00;99.90;;;;;;4928886;28;20242;-68
2023/02/16 07:59:25;;;;;;;24.33;14.55;;;5.00;99.90;;;;;;4936240;29;20218;-69
2023/02/16 08:01:51;;;;;;;15.38;12.05;;;5.00;99.90;;;;;;4931178;29;20230;-70
2023/02/16 08:04:18;;;;;;;16.42;9.30;;;5.00;99.90;;;;;;4933255;29;20208;-69
2023/02/16 08:06:47;;;;;;;38.42;13.27;;;5.10;99.90;;;;;;4936313;29;20241;-69
2023/02/16 08:09:14;;;;;;;13.93;10.40;;;5.10;99.90;;;;;;4934771;29;20315;-69
2023/02/16 08:11:41;;;;;;;23.95;11.57;;;5.20;99.90;;;;;;4932275;29;20211;-69
2023/02/16 08:14:08;;;;;;;18.65;12.32;;;5.30;99.90;;;;;;4935075;29;20253;-69
2023/02/16 08:16:34;;;;;;;14.43;10.18;;;5.40;99.90;;;;;;4941731;29;20245;-69
2023/02/16 08:19:03;;;;;;;23.77;12.18;;;5.50;99.90;;;;;;4936980;28;20210;-69
2023/02/16 08:21:32;;;;;;;19.63;13.25;;;5.60;99.90;;;;;;4935046;29;20215;-69
2023/02/16 08:24:02;;;;;;;23.42;11.48;;;5.60;99.90;;;;;;4935035;29;20230;-68
2023/02/16 08:26:32;;;;;;;24.42;16.83;;;5.70;99.90;;;;;;4935721;29;20232;-68
2023/02/16 08:29:00;;;;;;;24.98;10.20;;;5.80;99.90;;;;;;4935010;29;20215;-69
2023/02/16 08:31:29;;;;;;;18.08;11.48;;;5.90;99.90;;;;;;4932311;29;20218;-70
2023/02/16 08:33:58;;;;;;;20.00;11.52;;;6.00;99.90;;;;;;4934553;29;20562;-69
2023/02/16 08:36:28;;;;;;;15.80;12.52;;;6.10;99.90;;;;;;4932987;29;20237;-68
2023/02/16 08:38:55;;;;;;;18.77;12.05;;;6.20;99.90;;;;;;4935425;29;20230;-69
2023/02/16 08:41:29;;;;;;;12.25;10.88;;;6.20;99.90;;;;;;4934498;29;20215;-70
2023/02/16 08:43:56;;;;;;;13.07;11.63;;;6.30;99.90;;;;;;4935022;29;20204;-69
2023/02/16 08:46:22;;;;;;;29.58;12.88;;;6.40;99.90;;;;;;4934814;29;20243;-69
2023/02/16 08:48:49;;;;;;;15.93;10.98;;;6.50;99.90;;;;;;4934436;29;20213;-69
2023/02/16 08:51:18;;;;;;;23.90;10.90;;;6.60;99.90;;;;;;4935226;29;20242;-69
2023/02/16 08:53:45;;;;;;;22.67;14.48;;;6.70;99.90;;;;;;4933705;29;20224;-69
2023/02/16 08:56:13;;;;;;;18.35;10.65;;;6.70;99.90;;;;;;4934138;29;20258;-69
2023/02/16 08:58:41;;;;;;;15.65;11.88;;;6.80;99.90;;;;;;4934837;29;20605;-69
2023/02/16 09:01:08;;;;;;;17.75;11.52;;;6.80;99.90;;;;;;4935421;29;20235;-69
2023/02/16 09:03:37;;;;;;;19.88;13.20;;;6.80;99.90;;;;;;4932547;29;20215;-68
2023/02/16 09:06:05;;;;;;;16.55;10.00;;;6.80;99.90;;;;;;4932298;29;20298;-68
2023/02/16 09:08:32;;;;;;;11.40;10.18;;;6.90;99.90;;;;;;4930555;29;20213;-68
2023/02/16 09:11:01;;;;;;;15.95;10.20;;;6.90;99.90;;;;;;4932908;29;20215;-68
2023/02/16 09:13:28;;;;;;;14.35;11.07;;;6.90;99.90;;;;;;4927262;29;20593;-69
2023/02/16 09:16:02;;;;;;;17.27;10.55;;;6.90;99.90;;;;;;4934939;29;20240;-68
2023/02/16 09:18:29;;;;;;;15.20;9.25;;;6.90;99.90;;;;;;4934924;29;20613;-68
2023/02/16 09:20:56;;;;;;;25.10;12.07;;;6.90;99.90;;;;;;4933354;29;20213;-67
2023/02/16 09:23:24;;;;;;;16.52;9.30;;;7.00;99.90;;;;;;4934922;29;20579;-68
2023/02/16 09:25:51;;;;;;;12.10;10.55;;;7.00;99.90;;;;;;4934625;29;20212;-69
2023/02/16 09:28:18;;;;;;;13.65;12.05;;;7.00;99.90;;;;;;4932209;29;20211;-68
2023/02/16 09:30:44;;;;;;;17.10;9.55;;;7.10;99.90;;;;;;4935125;29;20213;-68
2023/02/16 09:33:13;;;;;;;9.48;8.18;;;7.20;99.90;;;;;;4935220;29;20216;-68
2023/02/16 09:35:40;;;;;;;24.42;10.45;;;7.20;99.90;;;;;;4932651;29;20213;-68
2023/02/16 09:38:07;;;;;;;23.23;12.10;;;7.30;99.90;;;;;;4935291;29;20218;-69
2023/02/16 09:40:36;;;;;;;23.67;11.25;;;7.30;99.90;;;;;;4930546;29;20244;-68
2023/02/16 09:43:12;;;;;;;14.57;9.70;;;7.40;99.90;;;;;;4933899;29;20208;-68
2023/02/16 09:45:43;;;;;;;13.98;11.02;;;7.40;99.90;;;;;;4931313;29;20212;-69
2023/02/16 09:48:21;;;;;;;17.77;13.48;;;7.40;99.90;;;;;;4934701;29;20298;-69
2023/02/16 09:50:50;;;;;;;17.35;10.77;;;7.40;99.90;;;;;;4934562;29;20270;-71
2023/02/16 09:53:24;;;;;;;16.42;11.13;;;7.50;99.90;;;;;;4933655;29;20213;-70
2023/02/16 09:56:04;;;;;;;13.43;9.00;;;7.50;99.90;;;;;;4933682;29;20211;-68
2023/02/16 09:58:39;;;;;;;23.30;11.80;;;7.60;99.90;;;;;;4933219;29;20208;-68
2023/02/16 10:01:16;;;;;;;17.17;10.80;;;7.70;99.90;;;;;;4934612;29;20212;-69
2023/02/16 10:03:54;;;;;;;14.50;9.00;;;7.70;99.90;;;;;;4933094;29;20206;-69
2023/02/16 10:06:33;;;;;;;16.08;11.23;;;7.80;99.90;;;;;;4928082;29;20243;-70
2023/02/16 10:09:04;;;;;;;37.38;15.88;;;7.80;99.90;;;;;;4933556;29;20225;-71
2023/02/16 10:11:40;;;;;;;14.15;10.10;;;8.00;99.90;;;;;;4930189;29;20272;-69
2023/02/16 10:14:13;;;;;;;15.15;10.23;;;8.10;99.90;;;;;;4930247;29;20548;-68
2023/02/16 10:16:42;;;;;;;10.52;8.73;;;8.10;99.90;;;;;;4926900;29;20307;-68
2023/02/16 10:19:20;;;;;;;12.00;9.40;;;8.10;99.90;;;;;;4930400;29;20220;-69
2023/02/16 10:21:50;;;;;;;13.27;10.27;;;8.20;99.90;;;;;;4932910;29;20217;-69
2023/02/16 10:24:17;;;;;;;11.65;10.35;;;8.20;99.90;;;;;;4928625;29;20237;-69
2023/02/16 10:26:47;;;;;;;13.65;8.80;;;8.30;99.90;;;;;;4932770;29;20324;-67
2023/02/16 10:29:16;;;;;;;18.85;11.55;;;8.30;99.90;;;;;;4933555;29;20240;-69
2023/02/16 10:31:49;;;;;;;21.70;13.43;;;8.40;99.90;;;;;;4934098;29;20207;-69
2023/02/16 10:34:21;;;;;;;14.73;11.05;;;8.40;99.90;;;;;;4925821;29;20236;-68
2023/02/16 10:37:10;;;;;;;11.57;7.32;;;8.40;99.90;;;;;;4930886;29;20241;-68
2023/02/16 10:39:45;;;;;;;12.80;9.75;;;8.40;99.90;;;;;;4929016;29;20703;-68
2023/02/16 10:42:21;;;;;;;14.30;9.38;;;8.50;99.90;;;;;;4926373;29;20212;-68
2023/02/16 10:44:55;;;;;;;17.35;11.90;;;8.60;99.90;;;;;;4932214;28;20666;-68
2023/02/16 10:47:32;;;;;;;19.73;13.02;;;8.80;99.90;;;;;;4933663;28;20725;-69
2023/02/16 10:50:00;;;;;;;17.27;10.48;;;8.90;99.90;;;;;;4932080;29;20223;-67
2023/02/16 10:52:33;;;;;;;15.88;10.55;;;8.90;99.90;;;;;;4933608;29;20231;-68
2023/02/16 10:55:01;;;;;;;16.90;8.55;;;9.00;99.90;;;;;;4932202;29;20231;-68
2023/02/16 10:57:31;;;;;;;15.32;10.35;;;9.00;99.90;;;;;;4930391;29;20257;-69
2023/02/16 11:00:01;;;;;;;15.68;10.35;;;9.10;99.90;;;;;;4932576;29;20216;-69
2023/02/16 11:02:30;;;;;;;17.17;11.00;;;9.10;99.90;;;;;;4933409;29;20217;-68
2023/02/16 11:05:00;;;;;;;22.13;11.55;;;9.00;99.90;;;;;;4929682;29;20218;-68
2023/02/16 11:07:30;;;;;;;16.17;8.07;;;9.10;99.90;;;;;;4931224;29;20575;-68
2023/02/16 11:10:00;;;;;;;11.65;8.02;;;9.10;99.90;;;;;;4935095;29;20211;-67
2023/02/16 11:12:29;;;;;;;16.48;10.05;;;9.10;99.90;;;;;;4926458;29;20211;-68
2023/02/16 11:15:01;;;;;;;13.98;9.77;;;9.10;99.90;;;;;;4932592;29;20316;-69
2023/02/16 11:17:30;;;;;;;15.30;11.05;;;9.10;99.90;;;;;;4936725;29;20232;-69
2023/02/16 11:20:01;;;;;;;19.30;10.95;;;9.10;99.90;;;;;;4930199;28;20292;-68
2023/02/16 11:22:32;;;;;;;17.73;10.88;;;9.20;99.90;;;;;;4932597;29;20621;-69
2023/02/16 11:25:23;;;;;;;13.75;9.30;;;9.20;99.90;;;;;;4931901;29;20203;-70
2023/02/16 11:27:52;;;;;;;25.17;11.75;;;9.20;99.90;;;;;;4930265;29;20235;-68
2023/02/16 11:30:28;;;;;;;28.80;16.75;;;9.20;99.90;;;;;;4931373;29;21817;-70
2023/02/16 11:32:55;;;;;;;27.23;14.65;;;9.20;99.90;;;;;;4927329;29;20224;-69
2023/02/16 11:35:25;;;;;;;18.88;10.32;;;9.30;99.90;;;;;;4928147;29;20326;-70
2023/02/16 11:37:52;;;;;;;20.25;7.65;;;9.30;99.90;;;;;;4931275;29;20234;-70
2023/02/16 11:40:23;;;;;;;17.95;8.98;;;9.50;99.90;;;;;;4934715;29;20307;-71
2023/02/16 11:42:52;;;;;;;13.40;9.15;;;9.50;99.90;;;;;;4933828;29;20208;-69
2023/02/16 11:45:26;;;;;;;19.98;9.80;;;9.60;99.90;;;;;;4934067;29;20207;-69
2023/02/16 11:47:55;;;;;;;13.90;9.07;;;9.50;99.90;;;;;;4935130;29;20241;-70
2023/02/16 11:50:27;;;;;;;11.70;9.55;;;9.50;99.90;;;;;;4935966;29;20217;-69
2023/02/16 11:52:56;;;;;;;13.00;7.85;;;9.50;99.90;;;;;;4925150;29;20215;-69
2023/02/16 11:55:26;;;;;;;15.05;11.10;;;9.60;99.90;;;;;;4932275;29;20225;-70
2023/02/16 11:57:55;;;;;;;17.67;11.60;;;9.60;99.90;;;;;;4934562;29;20310;-71
2023/02/16 12:00:25;;;;;;;13.77;10.25;;;9.60;99.90;;;;;;4938777;29;20305;-70
2023/02/16 12:03:12;;;;;;;15.05;9.43;;;9.60;99.90;;;;;;4938964;29;20272;-70
2023/02/16 12:05:52;;;;;;;23.00;10.82;;;9.70;99.90;;;;;;4935022;29;20214;-69
2023/02/16 12:08:32;;;;;;;14.77;9.82;;;9.70;99.90;;;;;;4942706;29;20207;-69
2023/02/16 12:11:12;;;;;;;16.83;11.07;;;9.80;99.90;;;;;;4943121;29;20218;-68
2023/02/16 12:13:47;;;;;;;17.13;9.30;;;9.80;99.90;;;;;;4948131;29;20200;-67
2023/02/16 12:16:24;;;;;;;14.43;10.20;;;9.90;99.90;;;;;;4957455;28;20758;-67
2023/02/16 12:19:06;;;;;;;10.40;8.80;;;9.90;99.90;;;;;;4959245;28;20223;-70
2023/02/16 12:21:39;;;;;;;12.25;8.15;;;9.80;99.90;;;;;;4957496;28;20191;-68
2023/02/16 12:24:20;;;;;;;11.82;8.48;;;9.80;99.90;;;;;;4957633;28;20198;-67
2023/02/16 12:26:50;;;;;;;21.85;8.95;;;9.80;99.90;;;;;;4956511;29;20286;-68
2023/02/16 12:29:37;;;;;;;13.25;8.75;;;9.80;99.90;;;;;;4945234;29;20227;-69
2023/02/16 12:32:21;;;;;;;40.00;12.50;;;9.70;99.90;;;;;;4939646;29;20214;-69
2023/02/16 12:34:59;;;;;;;12.48;9.90;;;9.70;99.90;;;;;;4936831;29;20238;-70
2023/02/16 12:37:37;;;;;;;11.25;9.88;;;9.70;99.90;;;;;;4941024;29;20236;-69
2023/02/16 12:40:16;;;;;;;10.63;9.50;;;9.70;99.90;;;;;;4939625;29;20271;-70
2023/02/16 12:43:03;;;;;;;19.27;8.80;;;9.80;99.90;;;;;;4939597;29;20228;-69
2023/02/16 12:45:35;;;;;;;16.20;11.85;;;9.80;99.90;;;;;;4938835;29;20209;-70
2023/02/16 12:48:11;;;;;;;15.43;11.50;;;9.90;99.90;;;;;;4938758;29;20208;-68
2023/02/16 12:50:43;;;;;;;19.33;9.35;;;9.90;99.90;;;;;;4941711;29;20541;-69
2023/02/16 12:53:20;;;;;;;17.35;10.63;;;9.90;99.90;;;;;;4940398;29;20301;-69
2023/02/16 12:55:50;;;;;;;24.35;11.38;;;9.90;99.90;;;;;;4936828;29;20567;-67
2023/02/16 12:58:22;;;;;;;20.20;11.18;;;9.90;99.90;;;;;;4934737;29;20250;-70
2023/02/16 13:00:51;;;;;;;18.42;10.50;;;9.80;99.90;;;;;;4936592;29;20526;-68
2023/02/16 13:03:27;;;;;;;16.10;10.48;;;9.80;99.90;;;;;;4935219;29;20211;-69
2023/02/16 13:06:02;;;;;;;12.82;8.63;;;9.80;99.90;;;;;;4935345;29;21589;-69
2023/02/16 13:08:38;;;;;;;18.33;12.50;;;9.80;99.90;;;;;;4936473;29;20218;-70
2023/02/16 13:11:11;;;;;;;12.90;9.30;;;9.80;99.90;;;;;;4936329;29;20215;-70
2023/02/16 13:13:38;;;;;;;12.18;9.90;;;9.80;99.90;;;;;;4936359;29;20213;-70
2023/02/16 13:16:08;;;;;;;12.00;8.68;;;9.80;99.90;;;;;;4936559;29;20272;-69
2023/02/16 13:18:39;;;;;;;18.35;10.88;;;9.80;99.90;;;;;;4940759;29;20200;-71
2023/02/16 13:21:10;;;;;;;15.23;10.07;;;9.80;99.90;;;;;;4936781;29;20215;-70
2023/02/16 13:24:01;;;;;;;11.65;9.05;;;9.90;99.90;;;;;;4938088;29;20208;-69
2023/02/16 13:26:48;;;;;;;16.20;11.73;;;9.90;99.90;;;;;;4940559;29;20291;-68
2023/02/16 13:29:40;;;;;;;18.63;10.15;;;9.90;99.90;;;;;;4940130;29;20225;-70
2023/02/16 13:32:22;;;;;;;13.18;10.40;;;10.00;99.90;;;;;;4935722;29;20293;-69
2023/02/16 13:35:07;;;;;;;14.40;9.70;;;10.00;99.90;;;;;;4935520;29;20235;-69
2023/02/16 13:37:50;;;;;;;17.67;11.35;;;10.10;99.90;;;;;;4935655;29;20242;-69
2023/02/16 13:40:41;;;;;;;17.75;11.60;;;10.10;99.90;;;;;;4933299;29;20208;-70
2023/02/16 13:43:22;;;;;;;18.48;11.27;;;10.20;99.90;;;;;;4934699;29;20221;-70
2023/02/16 13:45:52;;;;;;;19.98;12.75;;;10.20;99.90;;;;;;4933428;29;20211;-70
2023/02/16 13:48:24;;;;;;;18.65;11.77;;;10.30;99.90;;;;;;4934231;29;20213;-70
2023/02/16 13:50:57;;;;;;;15.05;10.20;;;10.30;99.90;;;;;;4934594;29;20591;-70
2023/02/16 13:53:24;;;;;;;14.77;8.85;;;10.20;99.90;;;;;;4933278;29;20218;-70
2023/02/16 13:56:13;;;;;;;20.25;12.10;;;10.20;99.90;;;;;;4933967;29;20706;-68
2023/02/16 13:58:40;;;;;;;22.83;12.52;;;10.20;99.90;;;;;;4933363;29;20226;-70
2023/02/16 14:01:37;;;;;;;21.17;10.70;;;10.20;99.90;;;;;;4934931;29;20700;-68
2023/02/16 14:04:06;;;;;;;17.08;8.77;;;10.10;99.90;;;;;;4928251;29;20227;-69
2023/02/16 14:06:36;;;;;;;17.65;9.88;;;10.10;99.90;;;;;;4933524;29;20225;-70
2023/02/16 14:09:33;;;;;;;14.27;8.85;;;10.00;99.90;;;;;;4932820;29;20207;-69
2023/02/16 14:12:04;;;;;;;20.02;9.82;;;9.90;99.90;;;;;;4934910;29;20299;-72
2023/02/16 14:14:34;;;;;;;20.15;11.65;;;9.90;99.90;;;;;;4930809;29;20215;-70
2023/02/16 14:17:17;;;;;;;12.68;9.77;;;9.90;99.90;;;;;;4934030;29;20242;-69
2023/02/16 14:19:51;;;;;;;13.75;10.77;;;9.90;99.90;;;;;;4936780;29;20233;-69
2023/02/16 14:22:20;;;;;;;19.83;9.48;;;10.00;99.90;;;;;;4934605;29;20681;-70
2023/02/16 14:24:53;;;;;;;20.42;10.30;;;9.90;99.90;;;;;;4933875;29;20912;-70
2023/02/16 14:27:44;;;;;;;14.88;10.20;;;9.90;99.90;;;;;;4937128;29;20254;-69
2023/02/16 14:30:25;;;;;;;17.67;12.30;;;9.90;99.90;;;;;;4935950;29;20219;-70
2023/02/16 14:32:56;;;;;;;19.10;12.10;;;9.90;99.90;;;;;;4936641;29;20228;-69
2023/02/16 14:35:28;;;;;;;18.30;10.15;;;9.90;99.90;;;;;;4934666;29;20243;-69
2023/02/16 14:37:58;;;;;;;19.13;10.88;;;9.80;99.90;;;;;;4933490;29;20242;-69
2023/02/16 14:40:43;;;;;;;31.08;10.88;;;9.80;99.90;;;;;;4928818;29;20209;-69
2023/02/16 14:43:23;;;;;;;14.18;10.20;;;9.80;99.90;;;;;;4932129;29;20200;-70
2023/02/16 14:46:01;;;;;;;17.77;9.95;;;9.80;99.90;;;;;;4930197;29;20287;-69
2023/02/16 14:49:05;;;;;;;17.08;10.05;;;9.70;99.90;;;;;;4935093;29;20211;-70
2023/02/16 14:51:51;;;;;;;18.58;10.65;;;9.70;99.90;;;;;;4930161;29;20560;-69
2023/02/16 14:54:47;;;;;;;13.73;10.00;;;9.80;99.90;;;;;;4916147;29;20661;-69
2023/02/16 14:57:18;;;;;;;17.20;9.80;;;9.80;99.90;;;;;;4932163;28;20720;-70
2023/02/16 14:59:52;;;;;;;16.27;10.85;;;9.70;99.90;;;;;;4928466;29;20297;-69
2023/02/16 15:02:27;;;;;;;21.17;10.05;;;9.70;99.90;;;;;;4933055;29;20213;-68
2023/02/16 15:04:54;;;;;;;18.05;10.15;;;9.70;99.90;;;;;;4928906;29;20532;-69
2023/02/16 15:07:22;;;;;;;13.32;9.18;;;9.70;99.90;;;;;;4932517;29;20388;-69
2023/02/16 15:09:57;;;;;;;11.23;9.27;;;9.70;99.90;;;;;;4933266;29;20211;-69
2023/02/16 15:12:28;;;;;;;16.05;11.30;;;9.70;99.90;;;;;;4927308;29;20581;-69
2023/02/16 15:14:59;;;;;;;13.75;9.32;;;9.70;99.90;;;;;;4933649;29;20320;-69
2023/02/16 15:17:34;;;;;;;21.13;11.40;;;9.70;99.90;;;;;;4934467;29;20314;-69
2023/02/16 15:20:06;;;;;;;22.80;12.07;;;9.60;99.90;;;;;;4934243;29;20631;-68
2023/02/16 15:22:37;;;;;;;18.67;10.27;;;9.60;99.90;;;;;;4935013;29;20208;-69
2023/02/16 15:25:16;;;;;;;17.17;10.77;;;9.60;99.90;;;;;;4932926;29;20210;-69
2023/02/16 15:27:53;;;;;;;14.98;11.45;;;9.60;99.90;;;;;;4920587;29;20223;-68
2023/02/16 15:30:24;;;;;;;18.80;13.20;;;9.50;99.90;;;;;;4933776;29;20664;-68
2023/02/16 15:32:54;;;;;;;20.27;10.23;;;9.50;99.90;;;;;;4937140;29;20678;-68
2023/02/16 15:35:27;;;;;;;23.23;13.25;;;9.50;99.90;;;;;;4937965;29;20209;-68
2023/02/16 15:38:18;;;;;;;12.45;10.50;;;9.50;99.90;;;;;;4936640;29;20238;-69
2023/02/16 15:40:45;;;;;;;22.48;9.95;;;9.50;99.90;;;;;;4932829;29;20232;-67
2023/02/16 15:43:23;;;;;;;16.38;9.15;;;9.40;99.90;;;;;;4938666;29;20289;-68
2023/02/16 15:45:53;;;;;;;13.77;12.45;;;9.40;99.90;;;;;;4937904;29;20238;-69
2023/02/16 15:48:26;;;;;;;17.73;12.95;;;9.40;99.90;;;;;;4937192;29;20217;-69
2023/02/16 15:50:55;;;;;;;17.85;9.32;;;9.40;99.90;;;;;;4938217;29;20222;-69
2023/02/16 15:53:32;;;;;;;19.33;11.73;;;9.30;99.90;;;;;;4936438;29;20214;-69
2023/02/16 15:56:02;;;;;;;27.65;10.13;;;9.30;99.90;;;;;;4937791;29;20299;-69
2023/02/16 15:58:28;;;;;;;11.73;8.48;;;9.30;99.90;;;;;;4935614;29;20644;-69
2023/02/16 16:00:57;;;;;;;24.77;10.43;;;9.30;99.90;;;;;;4937273;29;20213;-70
2023/02/16 16:03:24;;;;;;;17.90;10.07;;;9.30;99.90;;;;;;4936139;29;20678;-70
2023/02/16 16:05:59;;;;;;;24.40;10.27;;;9.20;99.90;;;;;;4937170;29;20208;-70
2023/02/16 16:08:28;;;;;;;20.90;9.98;;;9.20;99.90;;;;;;4935884;29;20669;-71
2023/02/16 16:10:55;;;;;;;18.33;11.38;;;9.20;99.90;;;;;;4936503;29;20286;-68
2023/02/16 16:13:26;;;;;;;21.60;11.85;;;9.20;99.90;;;;;;4936329;29;20220;-69
2023/02/16 16:15:56;;;;;;;14.32;9.85;;;9.20;99.90;;;;;;4937305;29;20288;-68
2023/02/16 16:18:42;;;;;;;16.40;10.80;;;9.10;99.90;;;;;;4936481;29;20220;-70
2023/02/16 16:21:21;;;;;;;16.25;10.88;;;9.20;99.90;;;;;;4937251;29;20307;-70
2023/02/16 16:23:56;;;;;;;13.82;9.13;;;9.20;99.90;;;;;;4936069;29;20223;-68
2023/02/16 16:26:24;;;;;;;15.30;10.32;;;9.30;99.90;;;;;;4935231;29;20533;-69
2023/02/16 16:28:51;;;;;;;18.20;11.32;;;9.30;99.90;;;;;;4935436;29;20210;-68
2023/02/16 16:31:32;;;;;;;18.30;11.55;;;9.30;99.90;;;;;;4936106;29;20217;-68
2023/02/16 16:34:02;;;;;;;22.55;10.55;;;9.20;99.90;;;;;;4935116;29;20673;-68
2023/02/16 16:36:32;;;;;;;13.70;12.30;;;9.10;99.90;;;;;;4933622;29;20338;-68
2023/02/16 16:39:19;;;;;;;14.07;8.88;;;9.00;99.90;;;;;;4939196;29;20209;-69
2023/02/16 16:42:04;;;;;;;16.77;10.68;;;9.00;99.90;;;;;;4925881;29;20811;-67
2023/02/16 16:44:34;;;;;;;15.38;9.70;;;8.90;99.90;;;;;;4929142;29;20701;-68
2023/02/16 16:47:13;;;;;;;25.52;11.07;;;8.90;99.90;;;;;;4928678;29;20593;-68
2023/02/16 16:49:49;;;;;;;18.58;11.68;;;8.80;99.90;;;;;;4932860;29;20489;-68
2023/02/16 16:52:33;;;;;;;19.15;12.68;;;8.80;99.90;;;;;;4932116;29;20213;-67
2023/02/16 16:55:00;;;;;;;12.70;8.93;;;8.80;99.90;;;;;;4934569;29;20414;-69
2023/02/16 16:57:28;;;;;;;22.15;11.63;;;8.80;99.90;;;;;;4935284;29;20258;-69
2023/02/16 16:59:55;;;;;;;18.13;11.63;;;8.80;99.90;;;;;;4933745;29;20271;-69
2023/02/16 17:02:22;;;;;;;15.25;9.57;;;8.70;99.90;;;;;;4936003;29;20215;-72
2023/02/16 17:04:50;;;;;;;15.52;10.07;;;8.70;99.90;;;;;;4934619;29;20243;-70
2023/02/16 17:07:17;;;;;;;16.63;9.23;;;8.70;99.90;;;;;;4934849;29;20522;-70
2023/02/16 17:09:44;;;;;;;20.40;9.75;;;8.70;99.90;;;;;;4935271;29;20217;-69
2023/02/16 17:12:11;;;;;;;30.15;11.82;;;8.70;99.90;;;;;;4934909;29;20228;-69
2023/02/16 17:14:37;;;;;;;24.27;10.90;;;8.60;99.90;;;;;;4935019;29;20216;-71
2023/02/16 17:17:07;;;;;;;18.95;13.02;;;8.60;99.90;;;;;;4933432;29;20256;-69
2023/02/16 17:19:34;;;;;;;17.80;11.25;;;8.60;99.90;;;;;;4933790;29;20286;-69
2023/02/16 17:22:06;;;;;;;24.42;12.77;;;8.60;99.90;;;;;;4933525;29;20299;-69
2023/02/16 17:24:33;;;;;;;20.05;13.85;;;8.60;99.90;;;;;;4933812;29;20204;-69
2023/02/16 17:26:59;;;;;;;22.25;14.68;;;8.60;99.90;;;;;;4932425;29;20305;-69
2023/02/16 17:29:26;;;;;;;24.30;12.60;;;8.50;99.90;;;;;;4934457;29;20606;-69
2023/02/16 17:31:53;;;;;;;21.95;12.80;;;8.50;99.90;;;;;;4934896;29;20236;-68
2023/02/16 17:34:19;;;;;;;19.50;14.85;;;8.50;99.90;;;;;;4933658;29;20217;-68
2023/02/16 17:36:46;;;;;;;19.13;13.15;;;8.50;99.90;;;;;;4930591;29;20725;-68
2023/02/16 17:39:14;;;;;;;15.35;13.90;;;8.50;99.90;;;;;;4935097;29;20209;-69
2023/02/16 17:41:41;;;;;;;14.38;10.73;;;8.50;99.90;;;;;;4934833;29;20243;-69
2023/02/16 17:44:08;;;;;;;15.85;12.02;;;8.40;99.90;;;;;;4934357;29;20214;-68
2023/02/16 17:46:34;;;;;;;26.45;14.50;;;8.40;99.90;;;;;;4934789;29;20262;-68
2023/02/16 17:49:01;;;;;;;22.90;11.60;;;8.40;99.90;;;;;;4931618;29;20231;-68
2023/02/16 17:51:30;;;;;;;24.67;11.80;;;8.40;99.90;;;;;;4931659;29;20210;-69
2023/02/16 17:53:57;;;;;;;21.55;13.70;;;8.30;99.90;;;;;;4930735;29;20604;-68
2023/02/16 17:56:25;;;;;;;26.17;12.32;;;8.30;99.90;;;;;;4933252;29;20232;-69
2023/02/16 17:58:52;;;;;;;15.07;11.10;;;8.30;99.90;;;;;;4930147;29;20218;-68
2023/02/16 18:01:20;;;;;;;19.95;12.45;;;8.30;99.90;;;;;;4933309;29;20220;-69
2023/02/16 18:03:47;;;;;;;24.05;12.93;;;8.30;99.90;;;;;;4932467;29;20219;-69
2023/02/16 18:06:20;;;;;;;19.83;13.88;;;8.30;99.90;;;;;;4928597;29;20229;-69
2023/02/16 18:08:47;;;;;;;23.23;12.18;;;8.30;99.90;;;;;;4933785;29;20666;-67